Accueil
METAR-TAF:

METAR-TAF

Aéroports :

Aéroport du Frioul-Vénétie julienne

Trieste / Ronchi dei Legionari, Italie

latitude: 45-49N, longitude: 013-29E, altitude: 12 m

Observation

Le bulletin a été fait il y a 31 minutes, à 08:50 UTC
Vent 13 kt de sud-est
Température 14°C
Humidité 82%
Pression 1002 hPa
Visibilité 10 km ou plus
pluie faible

METAR: LIPQ 050850Z AUTO 14013KT 9999 -RA FEW031/// OVC065/// 14/11 Q1002

Heure: 10:21 (09:21 UTC)

Prévision

Le bulletin a été fait il y a 4 heures et 21 minutes, à 05:00 UTC
Prévision valable du 05 à 06 UTC au 06 à 06 UTC
Vent 12 kt de sud-est
Visibilité: 8000 m
Nuages fragmentés à une hauteur de 2000 ft
Temporairement
du 05 à 06 UTC au 06 à 06 UTC
Visibilité: 4000 m
pluie

TAF: LIPQ 050500Z 0506/0606 14012KT 8000 BKN020 TEMPO 0506/0606 4000 RA

Observations et prévisions météorologiques de plus de 4000 aéroports (messages METAR et TAF).

Les stations disponibles sont représentées par des disques jaunes et rouges sur la carte.

Passer la souris dessus pour voir le nom de la station.

Cliquer dessus pour voir les observations et prévisions météorologiques.

Pour changer de carte: cliquez sur les boutons verts avec une croix noire pour zoomer, sur le bouton vert avec un tiret pour effectuer un zoom arrière, ou sur les flèches vertes pour les cartes adjacentes.


METAR-TAF: